createdAt,value
2023-01-17T00:01:34.020Z,4.30
2023-01-17T00:04:19.959Z,4.30
2023-01-17T00:07:07.289Z,4.30
2023-01-17T00:09:53.048Z,4.20
2023-01-17T00:12:25.015Z,4.30
2023-01-17T00:14:54.639Z,4.30
2023-01-17T00:17:23.384Z,4.30
2023-01-17T00:20:09.120Z,4.30
2023-01-17T00:22:55.947Z,4.20
2023-01-17T00:25:45.444Z,4.20
2023-01-17T00:28:12.512Z,4.10
2023-01-17T00:30:42.126Z,4.10
2023-01-17T00:33:09.051Z,4.10
2023-01-17T00:35:36.158Z,4.00
2023-01-17T00:38:06.682Z,4.00
2023-01-17T00:40:34.279Z,3.90
2023-01-17T00:43:20.197Z,3.80
2023-01-17T00:46:06.493Z,3.80
2023-01-17T00:48:52.976Z,3.70
2023-01-17T00:51:39.875Z,3.70
2023-01-17T00:54:27.215Z,3.70
2023-01-17T00:57:13.127Z,3.70
2023-01-17T00:59:59.013Z,3.70
2023-01-17T01:02:45.006Z,3.60
2023-01-17T01:05:32.332Z,3.60
2023-01-17T01:08:18.476Z,3.60
2023-01-17T01:11:07.252Z,3.60
2023-01-17T01:13:52.823Z,3.60
2023-01-17T01:16:41.340Z,3.60
2023-01-17T01:19:26.961Z,3.60
2023-01-17T01:22:12.361Z,3.50
2023-01-17T01:24:57.948Z,3.60
2023-01-17T01:27:45.028Z,3.70
2023-01-17T01:30:30.799Z,3.60
2023-01-17T01:33:16.583Z,3.70
2023-01-17T01:35:49.289Z,3.80
2023-01-17T01:38:17.530Z,3.80
2023-01-17T01:40:48.227Z,3.80
2023-01-17T01:43:21.509Z,3.80
2023-01-17T01:45:53.551Z,3.70
2023-01-17T01:48:33.954Z,3.70
2023-01-17T01:51:03.367Z,3.70
2023-01-17T01:53:34.253Z,3.60
2023-01-17T01:56:03.293Z,3.60
2023-01-17T01:58:36.907Z,3.60
2023-01-17T02:01:06.410Z,3.60
2023-01-17T02:03:35.547Z,3.70
2023-01-17T02:06:09.822Z,3.80
2023-01-17T02:08:37.951Z,3.80
2023-01-17T02:11:06.417Z,3.80
2023-01-17T02:13:36.498Z,3.80
2023-01-17T02:16:18.748Z,3.90
2023-01-17T02:18:55.727Z,3.90
2023-01-17T02:21:26.040Z,3.90
2023-01-17T02:24:26.197Z,3.90
2023-01-17T02:27:08.626Z,3.90
2023-01-17T02:30:20.041Z,3.90
2023-01-17T02:33:06.347Z,3.90
2023-01-17T02:35:43.297Z,3.90
2023-01-17T02:38:20.734Z,3.90
2023-01-17T02:40:53.246Z,3.90
2023-01-17T02:43:24.190Z,3.90
2023-01-17T02:45:52.588Z,3.90
2023-01-17T02:48:25.532Z,3.90
2023-01-17T02:51:26.197Z,4.00
2023-01-17T02:54:11.415Z,4.00
2023-01-17T02:56:53.378Z,4.00
2023-01-17T02:59:34.536Z,4.10
2023-01-17T03:02:17.670Z,4.10
2023-01-17T03:04:52.151Z,4.10
2023-01-17T03:07:25.428Z,4.10
2023-01-17T03:10:00.252Z,4.10
2023-01-17T03:12:29.618Z,4.20
2023-01-17T03:14:58.203Z,4.20
2023-01-17T03:17:30.575Z,4.30
2023-01-17T03:20:00.259Z,4.30
2023-01-17T03:22:28.277Z,4.30
2023-01-17T03:24:56.354Z,4.30
2023-01-17T03:27:24.439Z,4.30
2023-01-17T03:29:52.593Z,4.30
2023-01-17T03:32:20.697Z,4.30
2023-01-17T03:34:49.178Z,4.30
2023-01-17T03:37:18.629Z,4.30
2023-01-17T03:39:46.687Z,4.30
2023-01-17T03:42:14.797Z,4.40
2023-01-17T03:44:43.025Z,4.30
2023-01-17T03:47:12.248Z,4.30
2023-01-17T03:49:41.174Z,4.30
2023-01-17T03:52:09.291Z,4.30
2023-01-17T03:54:38.770Z,4.40
2023-01-17T03:57:08.533Z,4.40
2023-01-17T03:59:37.188Z,4.40
2023-01-17T04:02:05.412Z,4.50
2023-01-17T04:04:34.064Z,4.40
2023-01-17T04:07:02.132Z,4.50
2023-01-17T04:09:33.926Z,4.50
2023-01-17T04:12:03.974Z,4.50
2023-01-17T04:14:32.103Z,4.60
2023-01-17T04:17:00.288Z,4.60
2023-01-17T04:19:28.701Z,4.70
2023-01-17T04:21:56.852Z,4.70
2023-01-17T04:24:24.953Z,4.70
2023-01-17T04:26:53.014Z,4.70
2023-01-17T04:29:22.518Z,4.80
2023-01-17T04:31:50.655Z,4.80
2023-01-17T04:34:18.795Z,4.80
2023-01-17T04:36:46.806Z,4.90
2023-01-17T04:39:14.899Z,4.90
2023-01-17T04:41:43.822Z,4.80
2023-01-17T04:44:13.918Z,4.80
2023-01-17T04:46:43.399Z,4.80
2023-01-17T04:49:11.624Z,4.80
2023-01-17T04:51:40.034Z,4.70
2023-01-17T04:54:08.184Z,4.80
2023-01-17T04:56:36.351Z,4.90
2023-01-17T04:59:04.563Z,4.90
2023-01-17T05:01:32.762Z,4.90
2023-01-17T05:04:02.289Z,4.90
2023-01-17T05:06:30.439Z,4.90
2023-01-17T05:08:59.783Z,4.80
2023-01-17T05:11:27.952Z,4.80
2023-01-17T05:13:56.074Z,4.80
2023-01-17T05:16:26.771Z,4.80
2023-01-17T05:18:55.356Z,4.80
2023-01-17T05:21:24.965Z,4.80
2023-01-17T05:23:53.015Z,4.70
2023-01-17T05:26:21.264Z,4.80
2023-01-17T05:28:49.328Z,4.80
2023-01-17T05:31:17.587Z,4.80
2023-01-17T05:33:45.707Z,4.80
2023-01-17T05:36:13.988Z,4.80
2023-01-17T05:38:43.519Z,4.80
2023-01-17T05:41:13.766Z,4.70
2023-01-17T05:43:41.856Z,4.80
2023-01-17T05:46:10.400Z,4.80
2023-01-17T05:48:38.715Z,4.80
2023-01-17T05:51:07.060Z,4.80
2023-01-17T05:53:37.278Z,4.80
2023-01-17T05:56:07.647Z,4.80
2023-01-17T05:58:35.848Z,4.80
2023-01-17T06:01:03.986Z,4.90
2023-01-17T06:03:35.001Z,4.80
2023-01-17T06:06:03.198Z,4.80
2023-01-17T06:08:31.332Z,4.80
2023-01-17T06:10:59.911Z,4.80
2023-01-17T06:13:29.507Z,4.80
2023-01-17T06:16:02.686Z,4.70
2023-01-17T06:18:31.939Z,4.70
2023-01-17T06:21:00.135Z,4.70
2023-01-17T06:23:30.311Z,4.70
2023-01-17T06:25:58.456Z,4.70
2023-01-17T06:28:26.657Z,4.60
2023-01-17T06:30:56.316Z,4.60
2023-01-17T06:33:24.971Z,4.70
2023-01-17T06:35:54.101Z,4.70
2023-01-17T06:38:22.639Z,4.70
2023-01-17T06:40:53.065Z,4.60
2023-01-17T06:43:21.146Z,4.60
2023-01-17T06:45:51.237Z,4.60
2023-01-17T06:48:20.900Z,4.60
2023-01-17T06:50:49.819Z,4.60
2023-01-17T06:53:18.214Z,4.60
2023-01-17T06:55:48.461Z,4.60
2023-01-17T06:58:16.612Z,4.60
2023-01-17T07:00:44.824Z,4.70
2023-01-17T07:03:22.121Z,4.70
2023-01-17T07:05:50.272Z,4.70
2023-01-17T07:08:18.734Z,4.60
2023-01-17T07:10:47.657Z,4.60
2023-01-17T07:13:15.755Z,4.60
2023-01-17T07:15:43.890Z,4.70
2023-01-17T07:18:12.143Z,4.70
2023-01-17T07:20:43.847Z,4.70
2023-01-17T07:23:11.934Z,4.70
2023-01-17T07:25:40.064Z,4.70
2023-01-17T07:28:08.094Z,4.70
2023-01-17T07:30:36.651Z,4.60
2023-01-17T07:33:05.415Z,4.60
2023-01-17T07:35:33.522Z,4.60
2023-01-17T07:38:03.427Z,4.60
2023-01-17T07:40:33.545Z,4.60
2023-01-17T07:43:13.395Z,4.60
2023-01-17T07:45:46.381Z,4.50
2023-01-17T07:48:14.634Z,4.50
2023-01-17T07:50:42.790Z,4.50
2023-01-17T07:53:12.540Z,4.50
2023-01-17T07:55:41.006Z,4.50
2023-01-17T07:58:11.669Z,4.50
2023-01-17T08:00:39.972Z,4.50
2023-01-17T08:03:08.174Z,4.60
2023-01-17T08:05:36.761Z,4.60
2023-01-17T08:08:05.091Z,4.60
2023-01-17T08:10:34.517Z,4.70
2023-01-17T08:13:02.699Z,4.70
2023-01-17T08:15:30.811Z,4.80
2023-01-17T08:17:58.990Z,4.80
2023-01-17T08:20:28.193Z,4.80
2023-01-17T08:22:57.185Z,4.80
2023-01-17T08:25:27.318Z,4.80
2023-01-17T08:27:59.898Z,4.80
2023-01-17T08:30:28.656Z,4.80
2023-01-17T08:32:57.268Z,4.80
2023-01-17T08:35:25.426Z,4.80
2023-01-17T08:37:56.331Z,4.80
2023-01-17T08:40:27.709Z,4.90
2023-01-17T08:42:56.798Z,4.90
2023-01-17T08:45:27.095Z,4.80
2023-01-17T08:47:55.287Z,4.80
2023-01-17T08:50:24.928Z,4.90
2023-01-17T08:53:01.196Z,4.90
2023-01-17T08:55:33.383Z,5.00
2023-01-17T08:58:01.512Z,5.00
2023-01-17T09:00:32.051Z,5.00
2023-01-17T09:03:01.323Z,5.00
2023-01-17T09:05:29.713Z,5.00
2023-01-17T09:07:57.809Z,5.00
2023-01-17T09:10:28.323Z,5.00
2023-01-17T09:12:56.545Z,5.10
2023-01-17T09:15:25.867Z,5.10
2023-01-17T09:17:57.874Z,5.10
2023-01-17T09:20:30.070Z,5.10
2023-01-17T09:22:58.466Z,5.20
2023-01-17T09:25:26.698Z,5.20
2023-01-17T09:27:54.797Z,5.10
2023-01-17T09:30:23.885Z,5.20
2023-01-17T09:32:55.604Z,5.10
2023-01-17T09:35:25.070Z,5.20
2023-01-17T09:37:53.411Z,5.20
2023-01-17T09:40:26.102Z,5.30
2023-01-17T09:42:58.013Z,5.30
2023-01-17T09:45:28.865Z,5.20
2023-01-17T09:47:57.821Z,5.20
2023-01-17T09:50:32.591Z,5.20
2023-01-17T09:53:03.948Z,5.20
2023-01-17T09:55:36.319Z,5.30
2023-01-17T09:58:10.602Z,5.30
2023-01-17T10:00:47.839Z,5.20
2023-01-17T10:03:43.492Z,5.20
2023-01-17T10:06:38.634Z,5.20
2023-01-17T10:09:24.293Z,5.20
2023-01-17T10:12:05.564Z,5.20
2023-01-17T10:14:49.149Z,5.30
2023-01-17T10:17:24.865Z,5.30
2023-01-17T10:20:09.650Z,5.30
2023-01-17T10:22:52.240Z,5.20
2023-01-17T10:25:43.651Z,5.20
2023-01-17T10:28:17.642Z,5.20
2023-01-17T10:30:50.139Z,5.20
2023-01-17T10:33:22.249Z,5.20
2023-01-17T10:35:57.947Z,5.20
2023-01-17T10:38:31.986Z,5.00
2023-01-17T10:41:09.792Z,4.90
2023-01-17T10:43:48.506Z,4.80
2023-01-17T10:46:20.483Z,4.80
2023-01-17T10:48:50.755Z,4.80
2023-01-17T10:51:32.320Z,4.80
2023-01-17T10:54:11.530Z,4.90
2023-01-17T10:56:41.677Z,4.80
2023-01-17T10:59:29.476Z,4.70
2023-01-17T11:01:57.919Z,4.70
2023-01-17T11:04:35.832Z,4.70
2023-01-17T11:07:14.675Z,4.70
2023-01-17T11:09:45.872Z,4.60
2023-01-17T11:12:20.758Z,4.60
2023-01-17T11:15:07.296Z,4.60
2023-01-17T11:17:37.885Z,4.50
2023-01-17T11:20:19.946Z,4.40
2023-01-17T11:23:03.314Z,4.20
2023-01-17T11:25:35.005Z,4.30
2023-01-17T11:28:06.681Z,4.30
2023-01-17T11:30:35.227Z,4.40
2023-01-17T11:33:06.243Z,4.30
2023-01-17T11:35:36.792Z,4.20
2023-01-17T11:38:07.724Z,4.10
2023-01-17T11:40:41.365Z,3.90
2023-01-17T11:43:23.118Z,3.80
2023-01-17T11:46:07.401Z,3.80
2023-01-17T11:48:37.915Z,3.70
2023-01-17T11:51:18.958Z,3.70
2023-01-17T11:53:48.264Z,3.60
2023-01-17T11:56:28.007Z,3.40
2023-01-17T11:59:11.059Z,3.40
2023-01-17T12:01:41.326Z,3.50
2023-01-17T12:04:24.749Z,3.50
2023-01-17T12:07:17.815Z,3.60
2023-01-17T12:09:53.739Z,3.80
2023-01-17T12:12:48.871Z,3.70
2023-01-17T12:15:31.195Z,3.70
2023-01-17T12:18:22.570Z,3.70
2023-01-17T12:21:00.565Z,3.80
2023-01-17T12:23:46.239Z,3.90
2023-01-17T12:26:27.939Z,4.00
2023-01-17T12:29:33.121Z,4.10
2023-01-17T12:32:22.429Z,4.20
2023-01-17T12:34:56.089Z,4.20
2023-01-17T12:37:29.528Z,4.20
2023-01-17T12:40:03.281Z,4.20
2023-01-17T12:42:36.465Z,4.30
2023-01-17T12:45:09.282Z,4.40
2023-01-17T12:47:39.798Z,4.40
2023-01-17T12:50:19.555Z,4.50
2023-01-17T12:52:55.986Z,4.60
2023-01-17T12:55:41.319Z,4.60
2023-01-17T12:58:17.317Z,4.60
2023-01-17T13:00:51.256Z,4.60
2023-01-17T13:03:27.180Z,4.60
2023-01-17T13:05:58.578Z,4.60
2023-01-17T13:08:36.284Z,4.60
2023-01-17T13:11:09.463Z,4.50
2023-01-17T13:13:39.212Z,4.60
2023-01-17T13:16:13.749Z,4.50
2023-01-17T13:18:47.127Z,4.50
2023-01-17T13:21:29.948Z,4.60
2023-01-17T13:24:33.617Z,4.70
2023-01-17T13:27:21.933Z,4.70
2023-01-17T13:30:09.785Z,4.50
2023-01-17T13:33:25.867Z,4.50
2023-01-17T13:36:06.241Z,4.40
2023-01-17T13:38:57.520Z,4.40
2023-01-17T13:41:43.573Z,4.20
2023-01-17T13:44:25.406Z,4.20
2023-01-17T13:47:04.252Z,4.10
2023-01-17T13:49:51.488Z,4.10
2023-01-17T13:52:35.715Z,4.10
2023-01-17T13:55:05.154Z,4.20
2023-01-17T13:57:43.627Z,4.20
2023-01-17T14:01:00.006Z,4.30
2023-01-17T14:04:03.428Z,4.20
2023-01-17T14:06:37.379Z,4.20
2023-01-17T14:09:16.357Z,4.20
2023-01-17T14:11:58.403Z,4.20
2023-01-17T14:14:52.007Z,4.20
2023-01-17T14:17:59.108Z,4.20
2023-01-17T14:21:05.403Z,4.20
2023-01-17T14:23:57.219Z,4.20
2023-01-17T14:26:49.789Z,4.30
2023-01-17T14:29:47.502Z,4.30
2023-01-17T14:32:18.700Z,4.30
2023-01-17T14:34:48.454Z,4.30
2023-01-17T14:37:31.156Z,4.30
2023-01-17T14:40:00.459Z,4.30
2023-01-17T14:42:32.159Z,4.30
2023-01-17T14:45:03.824Z,4.30
2023-01-17T14:47:34.484Z,4.30
2023-01-17T14:50:21.490Z,4.30
2023-01-17T14:53:07.181Z,4.30
2023-01-17T14:55:35.785Z,4.30
2023-01-17T14:58:05.600Z,4.20
2023-01-17T15:00:40.584Z,4.20
2023-01-17T15:03:12.528Z,4.30
2023-01-17T15:05:44.081Z,4.30
2023-01-17T15:08:15.801Z,4.30
2023-01-17T15:10:51.579Z,4.30
2023-01-17T15:13:43.488Z,4.40
2023-01-17T15:16:21.816Z,4.30
2023-01-17T15:18:50.079Z,4.30
2023-01-17T15:21:20.502Z,4.20
2023-01-17T15:23:51.461Z,4.10
2023-01-17T15:26:21.573Z,4.10
2023-01-17T15:28:51.988Z,4.00
2023-01-17T15:31:38.673Z,3.90
2023-01-17T15:34:08.987Z,3.90
2023-01-17T15:36:38.565Z,3.80
2023-01-17T15:39:18.775Z,3.80
2023-01-17T15:41:48.209Z,3.70
2023-01-17T15:44:33.376Z,3.60
2023-01-17T15:47:27.908Z,3.50
2023-01-17T15:49:56.220Z,3.40
2023-01-17T15:52:26.609Z,3.30
2023-01-17T15:54:59.058Z,3.20
2023-01-17T15:57:29.828Z,3.20
2023-01-17T16:00:07.713Z,3.10
2023-01-17T16:02:43.565Z,2.90
2023-01-17T16:05:41.913Z,3.00
2023-01-17T16:08:41.515Z,3.10
2023-01-17T16:11:13.464Z,3.00
2023-01-17T16:13:43.373Z,3.00
2023-01-17T16:16:24.656Z,2.90
2023-01-17T16:18:59.510Z,2.80
2023-01-17T16:21:29.289Z,2.90
2023-01-17T16:23:57.765Z,2.90
2023-01-17T16:26:27.634Z,2.90
2023-01-17T16:28:55.773Z,2.70
2023-01-17T16:31:25.423Z,2.70
2023-01-17T16:33:53.800Z,2.60
2023-01-17T16:36:22.910Z,2.50
2023-01-17T16:38:53.084Z,2.70
2023-01-17T16:41:21.761Z,2.60
2023-01-17T16:43:59.452Z,2.60
2023-01-17T16:46:30.072Z,2.60
2023-01-17T16:49:00.798Z,2.60
2023-01-17T16:51:29.021Z,2.60
2023-01-17T16:53:57.126Z,2.60
2023-01-17T16:56:25.762Z,2.60
2023-01-17T16:58:54.633Z,2.60
2023-01-17T17:01:23.044Z,2.50
2023-01-17T17:03:52.582Z,2.40
2023-01-17T17:06:20.819Z,2.40
2023-01-17T17:08:48.933Z,2.40
2023-01-17T17:11:19.310Z,2.20
2023-01-17T17:13:51.941Z,2.30
2023-01-17T17:16:26.412Z,2.30
2023-01-17T17:19:00.430Z,2.20
2023-01-17T17:21:30.075Z,2.20
2023-01-17T17:23:59.820Z,2.40
2023-01-17T17:26:31.255Z,2.40
2023-01-17T17:28:59.657Z,2.40
2023-01-17T17:31:28.473Z,2.20
2023-01-17T17:34:00.959Z,1.90
2023-01-17T17:36:31.782Z,2.10
2023-01-17T17:39:01.788Z,2.20
2023-01-17T17:41:31.893Z,2.20
2023-01-17T17:44:01.788Z,2.30
2023-01-17T17:46:30.743Z,2.50
2023-01-17T17:49:00.989Z,2.50
2023-01-17T17:51:31.273Z,2.50
2023-01-17T17:54:01.688Z,2.40
2023-01-17T17:56:30.871Z,2.40
2023-01-17T17:58:59.120Z,2.30
2023-01-17T18:01:27.896Z,2.10
2023-01-17T18:03:57.849Z,2.00
2023-01-17T18:06:27.930Z,1.90
2023-01-17T18:08:55.982Z,2.00
2023-01-17T18:11:26.597Z,1.80
2023-01-17T18:13:55.980Z,1.80
2023-01-17T18:16:29.877Z,1.80
2023-01-17T18:18:59.630Z,1.80
2023-01-17T18:21:30.681Z,1.90
2023-01-17T18:24:00.904Z,1.90
2023-01-17T18:26:31.873Z,1.80
2023-01-17T18:29:01.780Z,1.80
2023-01-17T18:31:31.191Z,1.70
2023-01-17T18:34:00.909Z,1.70
2023-01-17T18:36:30.501Z,1.60
2023-01-17T18:38:58.976Z,1.50
2023-01-17T18:41:31.440Z,1.30
2023-01-17T18:43:59.855Z,1.20
2023-01-17T18:46:28.145Z,1.30
2023-01-17T18:48:57.898Z,1.40
2023-01-17T18:51:26.784Z,1.30
2023-01-17T18:53:59.459Z,1.40
2023-01-17T18:56:29.573Z,1.50
2023-01-17T18:58:58.638Z,1.60
2023-01-17T19:01:28.909Z,1.50
2023-01-17T19:03:59.178Z,1.40
2023-01-17T19:06:30.906Z,1.30
2023-01-17T19:09:01.207Z,1.40
2023-01-17T19:11:29.896Z,1.30
2023-01-17T19:13:58.441Z,1.30
2023-01-17T19:16:29.095Z,1.20
2023-01-17T19:19:03.312Z,0.90
2023-01-17T19:21:32.745Z,1.00
2023-01-17T19:24:02.350Z,1.20
2023-01-17T19:26:30.732Z,1.20
2023-01-17T19:29:00.183Z,1.20
2023-01-17T19:31:30.862Z,1.30
2023-01-17T19:34:01.000Z,1.20
2023-01-17T19:36:32.378Z,0.90
2023-01-17T19:39:06.707Z,0.70
2023-01-17T19:41:36.411Z,0.40
2023-01-17T19:44:07.170Z,0.20
2023-01-17T19:46:38.005Z,0.30
2023-01-17T19:49:10.321Z,0.30
2023-01-17T19:51:39.744Z,0.20
2023-01-17T19:54:11.408Z,0.30
2023-01-17T19:56:39.742Z,0.10
2023-01-17T19:59:07.938Z,0.20
2023-01-17T20:01:36.355Z,0.40
2023-01-17T20:04:05.594Z,0.50
2023-01-17T20:06:36.210Z,0.30
2023-01-17T20:09:05.941Z,0.20
2023-01-17T20:11:35.592Z,0.40
2023-01-17T20:14:05.434Z,0.30
2023-01-17T20:16:36.260Z,0.20
2023-01-17T20:19:04.564Z,0.00
2023-01-17T20:21:34.316Z,-0.20
2023-01-17T20:24:04.160Z,-0.30
2023-01-17T20:26:35.528Z,-0.50
2023-01-17T20:29:10.563Z,-0.20
2023-01-17T20:31:39.545Z,-0.20
2023-01-17T20:34:09.950Z,-0.20
2023-01-17T20:36:39.431Z,-0.30
2023-01-17T20:39:09.065Z,-0.50
2023-01-17T20:41:40.854Z,-0.60
2023-01-17T20:44:13.696Z,-0.80
2023-01-17T20:46:42.377Z,-1.00
2023-01-17T20:49:14.645Z,-1.10
2023-01-17T20:51:44.298Z,-1.10
2023-01-17T20:54:14.297Z,-1.00
2023-01-17T20:56:43.034Z,-1.00
2023-01-17T20:59:15.673Z,-0.90
2023-01-17T21:01:44.854Z,-1.00
2023-01-17T21:04:14.588Z,-1.00
2023-01-17T21:06:44.601Z,-1.00
2023-01-17T21:09:14.926Z,-1.10
2023-01-17T21:11:43.343Z,-1.00
2023-01-17T21:14:12.819Z,-0.70
2023-01-17T21:16:41.363Z,-0.30
2023-01-17T21:19:15.386Z,-0.30
2023-01-17T21:21:43.727Z,-0.40
2023-01-17T21:24:18.368Z,-0.50
2023-01-17T21:26:47.175Z,-0.80
2023-01-17T21:29:16.829Z,-0.90
2023-01-17T21:31:45.395Z,-1.00
2023-01-17T21:34:14.537Z,-1.10
2023-01-17T21:36:44.465Z,-1.10
2023-01-17T21:39:17.701Z,-0.90
2023-01-17T21:41:49.489Z,-0.90
2023-01-17T21:44:22.490Z,-0.90
2023-01-17T21:46:55.093Z,-0.60
2023-01-17T21:49:24.786Z,-0.30
2023-01-17T21:52:10.686Z,-0.40
2023-01-17T21:54:56.510Z,-0.60
2023-01-17T21:57:41.933Z,-0.60
2023-01-17T22:00:15.990Z,-0.50
2023-01-17T22:02:45.174Z,-0.60
2023-01-17T22:05:13.778Z,-0.60
2023-01-17T22:08:04.328Z,-0.60
2023-01-17T22:10:32.661Z,-0.70
2023-01-17T22:13:05.641Z,-0.60
2023-01-17T22:15:36.615Z,-0.60
2023-01-17T22:18:05.022Z,-0.80
2023-01-17T22:20:35.035Z,-0.80
2023-01-17T22:23:03.136Z,-1.00
2023-01-17T22:25:32.098Z,-0.90
2023-01-17T22:28:00.221Z,-0.90
2023-01-17T22:30:28.456Z,-1.00
2023-01-17T22:32:58.639Z,-1.20
2023-01-17T22:35:27.098Z,-1.30
2023-01-17T22:37:55.244Z,-1.20
2023-01-17T22:40:24.048Z,-1.20
2023-01-17T22:42:54.985Z,-1.20
2023-01-17T22:45:24.203Z,-1.30
2023-01-17T22:47:52.447Z,-1.40
2023-01-17T22:50:23.358Z,-1.40
2023-01-17T22:52:51.490Z,-1.50
2023-01-17T22:55:20.739Z,-1.50
2023-01-17T22:57:48.816Z,-1.60
2023-01-17T23:00:17.851Z,-1.60
2023-01-17T23:02:46.009Z,-1.60
2023-01-17T23:05:14.180Z,-1.50
2023-01-17T23:07:46.471Z,-1.00
2023-01-17T23:10:37.981Z,-0.70
2023-01-17T23:13:10.294Z,-0.50
2023-01-17T23:16:08.022Z,-0.50
2023-01-17T23:18:53.532Z,-0.60
2023-01-17T23:21:21.699Z,-0.40
2023-01-17T23:23:51.146Z,-0.50
2023-01-17T23:26:19.207Z,-0.50
2023-01-17T23:28:46.278Z,-0.70
2023-01-17T23:31:14.366Z,-0.60
2023-01-17T23:33:42.466Z,-0.70
2023-01-17T23:36:11.705Z,-0.70
2023-01-17T23:38:44.038Z,-0.70
2023-01-17T23:41:31.110Z,-0.70
2023-01-17T23:43:59.817Z,-0.90
2023-01-17T23:46:29.934Z,-0.90
2023-01-17T23:48:58.581Z,-0.90
2023-01-17T23:51:26.664Z,-0.80
2023-01-17T23:54:05.095Z,-0.60
2023-01-17T23:56:34.971Z,-0.90
2023-01-17T23:59:04.342Z,-1.00
